Alabama, New York
Current Conditions -  °F | °C
As of 9:54 PM on Monday 22 Dec 2014 (Local Time) from KBUF Reporting Station
Overcast Overcast  
Wind Chill: 29°   Ceiling: 17000
Heat Index: 35°   Visibility: 10mi
Dew Point: 26°   Wind: 7mph
Humidity: 70%   Direction: 140°SE
Pressure: 30.01"   Gusts: NA
Location:  43.1°N, 78.39°W
Report Text: KBUF 230254Z 14006KT 10SM FEW050 OVC170 02/M03 A3001 RMK AO2 SLP172 T00171033 56014
Loading
Personal Weather Stations






























Interactive Weather Map New forecast layout! Learn more

10-Day Weather Forecast

Advertisements
Track Severe Weather on mobile